createdAt,value
2023-01-13T05:31:06.433Z,96.64
2023-01-13T05:36:08.751Z,96.17
2023-01-13T05:41:28.710Z,95.81
2023-01-13T05:46:30.856Z,96.32
2023-01-13T05:51:32.544Z,96.57
2023-01-13T05:56:35.202Z,97.17
2023-01-13T06:01:37.245Z,99.13
2023-01-13T06:06:38.909Z,99.89
2023-01-13T06:11:40.535Z,99.66
2023-01-13T06:16:42.134Z,99.65
2023-01-13T06:21:46.626Z,98.80
2023-01-13T06:26:48.404Z,99.19
2023-01-13T06:31:50.203Z,99.64
2023-01-13T06:36:55.146Z,99.57
2023-01-13T06:42:16.431Z,100.00
2023-01-13T06:47:18.710Z,100.00
2023-01-13T06:52:20.568Z,100.00
2023-01-13T06:57:22.262Z,100.00
2023-01-13T07:02:24.104Z,100.00
2023-01-13T07:07:27.237Z,100.00
2023-01-13T07:12:28.899Z,100.00
2023-01-13T07:17:30.982Z,100.00
2023-01-13T07:22:33.248Z,100.00
2023-01-13T07:27:35.542Z,100.00
2023-01-13T07:32:37.736Z,100.00
2023-01-13T07:37:40.008Z,100.00
2023-01-13T07:43:00.278Z,100.00
2023-01-13T07:48:02.105Z,100.00
2023-01-13T07:53:04.106Z,100.00
2023-01-13T07:58:06.515Z,100.00
2023-01-13T08:03:08.346Z,100.00
2023-01-13T08:08:10.143Z,100.00
2023-01-13T08:13:22.344Z,100.00
2023-01-13T08:18:24.128Z,100.00
2023-01-13T08:23:25.813Z,100.00
2023-01-13T08:28:27.564Z,100.00
2023-01-13T08:33:30.306Z,99.17
2023-01-13T08:38:32.875Z,100.00
2023-01-13T08:43:34.833Z,100.00
2023-01-13T08:48:36.844Z,100.00
2023-01-13T08:53:38.727Z,100.00
2023-01-13T08:58:41.080Z,100.00
2023-01-13T09:03:42.830Z,100.00
2023-01-13T09:08:44.817Z,100.00
2023-01-13T09:13:46.435Z,100.00
2023-01-13T09:18:48.158Z,100.00
2023-01-13T09:23:49.753Z,100.00
2023-01-13T09:28:51.726Z,100.00
2023-01-13T09:34:12.352Z,100.00
2023-01-13T09:39:14.746Z,100.00
2023-01-13T09:44:44.440Z,100.00
2023-01-13T09:49:46.230Z,100.00
2023-01-13T09:54:55.762Z,100.00
2023-01-13T09:59:58.529Z,100.00
2023-01-13T10:05:32.330Z,100.00
2023-01-13T10:10:44.939Z,100.00
2023-01-13T10:16:03.464Z,100.00
2023-01-13T10:21:43.925Z,100.00
2023-01-13T10:26:45.610Z,100.00
2023-01-13T10:31:47.612Z,100.00
2023-01-13T10:36:59.737Z,100.00
2023-01-13T10:42:05.426Z,99.06
2023-01-13T10:47:21.002Z,98.90
2023-01-13T10:52:32.787Z,97.13
2023-01-13T10:57:37.106Z,97.90
2023-01-13T11:02:38.858Z,97.85
2023-01-13T11:07:50.628Z,97.90
2023-01-13T11:13:01.430Z,97.45
2023-01-13T11:18:43.709Z,96.64
2023-01-13T11:23:57.632Z,97.31
2023-01-13T11:29:15.742Z,100.00
2023-01-13T11:34:32.721Z,100.00
2023-01-13T11:40:01.638Z,100.00
2023-01-13T11:45:17.627Z,100.00
2023-01-13T11:50:45.552Z,100.00
2023-01-13T11:55:57.672Z,100.00
2023-01-13T12:01:09.600Z,100.00
2023-01-13T12:06:16.815Z,100.00
2023-01-13T12:12:04.058Z,100.00
2023-01-13T12:17:19.312Z,100.00
2023-01-13T12:22:28.128Z,100.00
2023-01-13T12:27:38.875Z,100.00
2023-01-13T12:32:41.390Z,100.00
2023-01-13T12:37:52.318Z,100.00
2023-01-13T12:43:27.184Z,100.00
2023-01-13T12:48:56.787Z,100.00
2023-01-13T12:54:00.199Z,100.00
2023-01-13T12:59:35.201Z,100.00
2023-01-13T13:04:49.201Z,100.00
2023-01-13T13:10:07.169Z,100.00
2023-01-13T13:15:24.329Z,100.00
2023-01-13T13:20:54.349Z,100.00
2023-01-13T13:26:24.036Z,100.00
2023-01-13T13:31:47.238Z,100.00
2023-01-13T13:37:21.378Z,100.00
2023-01-13T13:42:45.638Z,100.00
2023-01-13T13:47:48.141Z,100.00
2023-01-13T13:53:06.303Z,100.00
2023-01-13T13:58:17.563Z,100.00
2023-01-13T14:03:29.272Z,100.00
2023-01-13T14:08:34.864Z,100.00
2023-01-13T14:13:36.501Z,100.00
2023-01-13T14:18:48.457Z,100.00
2023-01-13T14:24:00.419Z,100.00
2023-01-13T14:29:02.586Z,100.00
2023-01-13T14:34:32.571Z,100.00
2023-01-13T14:39:39.828Z,100.00
2023-01-13T14:44:46.123Z,100.00
2023-01-13T14:50:16.804Z,100.00
2023-01-13T14:55:22.822Z,100.00
2023-01-13T15:00:25.855Z,100.00
2023-01-13T15:05:27.442Z,100.00
2023-01-13T15:10:30.796Z,100.00
2023-01-13T15:15:36.609Z,100.00
2023-01-13T15:20:40.479Z,100.00
2023-01-13T15:25:43.263Z,100.00
2023-01-13T15:30:44.877Z,100.00
2023-01-13T15:35:50.331Z,100.00
2023-01-13T15:40:52.908Z,100.00
2023-01-13T15:46:13.004Z,100.00
2023-01-13T15:51:14.672Z,100.00
2023-01-13T15:56:24.635Z,100.00
2023-01-13T16:01:26.520Z,100.00
2023-01-13T16:06:33.047Z,97.30
2023-01-13T16:11:34.751Z,100.00
2023-01-13T16:16:36.969Z,100.00
2023-01-13T16:21:39.042Z,100.00
2023-01-13T16:26:41.316Z,100.00
2023-01-13T16:31:43.045Z,100.00
2023-01-13T16:36:46.340Z,100.00
2023-01-13T16:41:48.459Z,100.00
2023-01-13T16:46:50.409Z,100.00
2023-01-13T16:51:52.058Z,100.00
2023-01-13T16:56:53.721Z,100.00
2023-01-13T17:01:55.426Z,100.00
2023-01-13T17:07:04.586Z,100.00
2023-01-13T17:12:06.456Z,100.00
2023-01-13T17:17:20.933Z,100.00
2023-01-13T17:22:23.103Z,100.00
2023-01-13T17:27:26.022Z,100.00
2023-01-13T17:32:27.701Z,100.00
2023-01-13T17:37:29.930Z,100.00
2023-01-13T17:42:32.195Z,100.00
2023-01-13T17:47:33.901Z,100.00
2023-01-13T17:52:35.637Z,100.00
2023-01-13T17:57:37.387Z,100.00
2023-01-13T18:02:39.318Z,100.00
2023-01-13T18:07:41.117Z,100.00
2023-01-13T18:12:42.925Z,100.00
2023-01-13T18:17:45.885Z,100.00
2023-01-13T18:23:07.791Z,100.00
2023-01-13T18:28:10.022Z,100.00
2023-01-13T18:33:12.476Z,100.00
2023-01-13T18:38:25.399Z,100.00
2023-01-13T18:43:28.067Z,100.00
2023-01-13T18:48:31.492Z,100.00
2023-01-13T18:53:34.377Z,100.00
2023-01-13T18:58:36.592Z,100.00
2023-01-13T19:03:38.266Z,100.00
2023-01-13T19:08:40.402Z,100.00
2023-01-13T19:13:42.058Z,100.00
2023-01-13T19:18:44.369Z,100.00
2023-01-13T19:23:47.033Z,100.00
2023-01-13T19:28:50.652Z,100.00
2023-01-13T19:33:52.682Z,100.00
2023-01-13T19:38:54.545Z,100.00
2023-01-13T19:44:14.950Z,100.00
2023-01-13T19:49:17.299Z,100.00
2023-01-13T19:54:20.342Z,100.00
2023-01-13T19:59:29.058Z,100.00
2023-01-13T20:04:38.523Z,100.00
2023-01-13T20:09:45.137Z,100.00
2023-01-13T20:14:48.013Z,100.00
2023-01-13T20:19:49.783Z,100.00
2023-01-13T20:24:55.463Z,100.00
2023-01-13T20:29:57.741Z,100.00
2023-01-13T20:34:59.627Z,100.00
2023-01-13T20:40:02.128Z,100.00
2023-01-13T20:45:04.453Z,100.00
2023-01-13T20:50:06.639Z,100.00
2023-01-13T20:55:09.557Z,100.00
2023-01-13T21:00:12.313Z,100.00
2023-01-13T21:05:14.789Z,100.00
2023-01-13T21:10:16.844Z,100.00
2023-01-13T21:15:20.356Z,100.00
2023-01-13T21:20:23.169Z,100.00
2023-01-13T21:25:25.209Z,100.00
2023-01-13T21:30:27.076Z,100.00
2023-01-13T21:35:28.739Z,100.00
2023-01-13T21:40:30.464Z,100.00
2023-01-13T21:45:50.762Z,100.00
2023-01-13T21:50:53.267Z,100.00
2023-01-13T21:55:54.957Z,100.00
2023-01-13T22:01:01.037Z,100.00
2023-01-13T22:06:02.823Z,100.00
2023-01-13T22:11:04.934Z,100.00
2023-01-13T22:16:09.071Z,100.00
2023-01-13T22:21:11.182Z,100.00
